Ehrmandale, Indiana
Current Conditions -  °F | °C
As of 4:53 AM on Thursday 18 Dec 2014 (Local Time) from KHUF Reporting Station
Overcast Overcast  
Wind Chill: 18°   Ceiling: 1800
Heat Index: 25°   Visibility: 10mi
Dew Point: 19°   Wind: 6mph
Humidity: 78%   Direction: 70°ENE
Pressure: 30.28"   Gusts: NA
Location:  39.543°N, 87.3153°W
Report Text: KHUF 180953Z 07005KT 10SM OVC018 M04/M07 A3028 RMK AO2 SLP260 T10391072
Loading
Personal Weather Stations






























Interactive Weather Map New forecast layout! Learn more

10-Day Weather Forecast

Advertisements
Track Severe Weather on mobile